TOURFACTS.DK  
Stats and Facts from Tour de France.

Tour de France 2018 starts in 12 days
  Riders   Stages   Teams   Summits   Yearly  


 
Search by year

After 2017 - Stage 21:
 14824 starters.
  5132 different riders.
  639 teams.
  2232 stages.
  456 restdays.
  439589.60 km.
  5653 abandonnees.


Top 3
GC
Christopher Froome86:20:55
Rigoberto Urán86:21:49
Romain Bardet86:23:15
Climb
Warren Barguil169 pt.
Primoz Roglic80 pt.
Thomas De Gendt64 pt.
Sprint
Michael Matthews359 pt.
André Greipel234 pt.
Edvald Boasson Hagen220 pt.
Youth
Simon Yates86:27:09
Louis Meintjes86:29:15
Emanuel Buchmann86:54:16
Facts from Tour de France 1949
  |   Stages.  |   Stage winners.  |   Days in yellow  |   Average speed.  |   Route.  |   Teams.  |   All riders.  |   Rookies.  |  

  |   Withdrawls.  |   GC.  |   Polka  |   Green  |   White  |   Summits. (In tour)  |   Miscellaneous.  |  

Stage 10 on 10 - 07 - 1949
         Owning:    Vittorio Magni    
Pick a stage:  1 2 3 4 5 6 7 8 9 10 11 12 13 14 15 16 17 18 19 20 21
  San-SebastianPau | Dist: 192.00 km.

Average speed for all riders in stage:  30,743 km./hr.
    Place:Name:Team:Time:Km/h:
ITAVittorio MagniITACadetti Italiens05:53:04  +  00:00:00=32,628 
BELRaymond ImpanisBELBelgium05:53:04  +  00:00:00=32,628 
ITASerifano BiagioniITAItaly05:53:04  +  00:00:00=32,628 
4 ITAÉdouard FachleitnerFRASouth-East05:53:04  +  00:00:00=32,628 
5 FRARaphaël GeminianiFRAFrance06:11:17  +  00:18:13=31,028 
6 SUIFerdi KüblerCHESwitzerland06:13:40  +  00:20:36=30,830 
7 ITAGino SciardisITAItaly06:13:40  +  00:20:36=30,830 
8 BELRik Van SteenbergenBELBelgium06:13:40  +  00:20:36=30,830 
9 BELStan OckersBELBelgium06:13:40  +  00:20:36=30,830 
10 BELMarcel KintBELBelgium06:13:40  +  00:20:36=30,830 
11 FRAAndre MahéFRAWest-North06:13:40  +  00:20:36=30,830 
12 FRALouis CaputFRAIle De France06:13:40  +  00:20:36=30,830 
13 BELJacques GeusBELAiglons Belges06:13:40  +  00:20:36=30,830 
14 ITAGiuseppe TaccaFRAIle De France06:13:40  +  00:20:36=30,830 
15 ITAGiuseppe AusendaITACadetti Italiens06:13:40  +  00:20:36=30,830 
16 ITAAlfredo MartiniITACadetti Italiens06:13:40  +  00:20:36=30,830 
17 FRAAndré BruléFRAIle De France06:13:40  +  00:20:36=30,830 
18 BELJoseph VerhaertBELAiglons Belges06:13:40  +  00:20:36=30,830 
19 ITASylvio PedroniITACadetti Italiens06:13:40  +  00:20:36=30,830 
20 ITAArmando PeverelliITACadetti Italiens06:13:40  +  00:20:36=30,830 
21 BELMarcel De MulderBELAiglons Belges06:13:40  +  00:20:36=30,830 
22 BELMarcel DupontBELAiglons Belges06:13:40  +  00:20:36=30,830 
23 FRAAntonin RollandFRASouth-East06:13:40  +  00:20:36=30,830 
24 FRAJacques MarinelliFRAIle De France06:13:40  +  00:20:36=30,830 
25 ITANello LaurediFRASouth-East06:13:40  +  00:20:36=30,830 
26 SUIPierre BrambillaFRASouth-East06:13:40  +  00:20:36=30,830 
27 FRAGeorges RamouluxFRACenter-South West06:13:40  +  00:20:36=30,830 
28 FRAPaul PineauFRACenter-South West06:13:40  +  00:20:36=30,830 
29 FRAHenri MassalFRACenter-South West06:13:40  +  00:20:36=30,830 
30 FRARoger LevequeFRACenter-South West06:13:40  +  00:20:36=30,830 
31 FRARobert DesbatsFRACenter-South West06:13:40  +  00:20:36=30,830 
32 FRAJean BlancFRACenter-South West06:13:40  +  00:20:36=30,830 
33 FRAJean RobicFRAWest-North06:13:40  +  00:20:36=30,830 
34 FRAJean-Marie GoasmatFRAWest-North06:13:40  +  00:20:36=30,830 
35 FRAPierre CoganFRAWest-North06:13:40  +  00:20:36=30,830 
36 BELMarcel HendrickxBELAiglons Belges06:13:40  +  00:20:36=30,830 
37 LUXJean KirchenLUXLuxembourg06:13:40  +  00:20:36=30,830 
38 LUXJean GoldschmitLUXLuxembourg06:13:40  +  00:20:36=30,830 
39 ITAAngelo BrignoleITAItaly06:13:40  +  00:20:36=30,830 
40 ITAFausto CoppiITAItaly06:13:40  +  00:20:36=30,830 
41 ITAEttore MilanoITAItaly06:13:40  +  00:20:36=30,830 
42 ITABruno PasquiniITAItaly06:13:40  +  00:20:36=30,830 
43 BELFlorent MathieuBELBelgium06:13:40  +  00:20:36=30,830 
44 ITAGino BartaliITAItaly06:13:40  +  00:20:36=30,830 
45 BELRoger LambrechtBELBelgium06:13:40  +  00:20:36=30,830 
46 FRARobert ChapatteFRAFrance06:13:40  +  00:20:36=30,830 
47 FRARené ViettoFRAFrance06:13:40  +  00:20:36=30,830 
48 FRAJean-Apotre LazaridesFRAFrance06:13:40  +  00:20:36=30,830 
49 LUXMarcel ErnzerLUXLuxembourg06:13:40  +  00:20:36=30,830 
50 LUXJean DiederichLUXLuxembourg06:13:40  +  00:20:36=30,830 
51 SUIGeorges AeschlimannCHESwitzerland06:13:40  +  00:20:36=30,830 
52 FRALucien TeisseireFRAFrance06:13:40  +  00:20:36=30,830 
53 FRALucien LazaridesFRAFrance06:13:40  +  00:20:36=30,830 
54 FRALouis DeprezFRAFrance06:14:34  +  00:21:30=30,756 
55 BELDésiré KeteleerBELBelgium06:20:10  +  00:27:06=30,302 
56 FRAGeorges MartinFRASouth-East06:20:10  +  00:27:06=30,302 
57 BELEdward Van DijckBELBelgium06:20:10  +  00:27:06=30,302 
58 FRAPaul GiguetFRASouth-East06:20:10  +  00:27:06=30,302 
59 ITAFermo CamelliniFRASouth-East06:20:10  +  00:27:06=30,302 
60 ITAGiovanni CorrieriITAItaly06:20:10  +  00:27:06=30,302 
61 ITAGuido De SantiITAItaly06:20:10  +  00:27:06=30,302 
62 SUIGottfried WeilenmannCHESwitzerland06:20:10  +  00:27:06=30,302 
63 BELBriek SchotteBELBelgium06:20:10  +  00:27:06=30,302 
64 ITALuciano PezziITAItaly06:20:10  +  00:27:06=30,302 
65 MARCustodio Dos ReisFRACenter-South West06:20:10  +  00:27:06=30,302 
66 FRAAlbert DolhatsFRACenter-South West06:20:10  +  00:27:06=30,302 
67 FRARoger Le NizerhyFRAWest-North06:20:10  +  00:27:06=30,302 
68 ITAVincenzo RosselloITAItaly06:20:10  +  00:27:06=30,302 
69 BELNorbert CallensBELBelgium06:20:10  +  00:27:06=30,302 
70 GERCésar MarcelakFRAWest-North06:20:10  +  00:27:06=30,302 
71 ITAAdolphe DeleddaFRASouth-East06:22:53  +  00:29:49=30,087 
72 FRAEdouard MullerFRAIle De France06:22:53  +  00:29:49=30,087 
73 FRAEmile IdéeFRAIle De France06:25:58  +  00:32:54=29,847 
74 BELRoger GhyselinckBELBelgium06:27:46  +  00:34:42=29,709 
75 ITAMario RicciITAItaly06:27:46  +  00:34:42=29,709 

Withdrawls: 11
 
Rider
Team
Reason
25  FRALouison BobetFRAFranceDid not finish
27  FRACamille DanguillaumeFRAFranceDid not finish
29  FRAMaurice DiotFRAFranceDid not finish
30  FRABernard GauthierFRAFranceDid not finish
32  FRAGuy LapébieFRAFranceDid not finish
38  SUIRoger AeschlimannCHESwitzerlandDid not finish
49  NEDHenk de HoogNLDHollandDid not finish
51  NEDWim De RuyterNLDHollandDid not finish
53  NEDFrans PauwelsNLDHollandDid not finish
79  FRARaymond LucasFRAIle De FranceDid not finish
118  FRAJean ReyFRASouth-EastDid not finish

Todays birthdays.

1875  Jules Sales
1888  Leon Lannoy
1922  Henri Surbatis
1932  Ferdinand Devèze
1939  Dieter Puschel
1961  Gerhard Zadrobilek
1964  Javier Duch
1965  Clarence Knickman
1968  Michael Sandstød
1986  Simon Spilak




Visits: